Time;durP1;ratioP1;P1;durP2;ratioP2;P2;SDS_P1;SDS_P2;PMS_P1;PMS_P2;Temp;Humidity;BMP_temperature;BMP_pressure;BME280_temperature;BME280_humidity;BME280_pressure;Samples;Min_cycle;Max_cycle;Signal;HPM_P1;HPM_P2
2022/05/25 00:01:34;;;;;;;;;;;;;;;16.59;76.61;99850.57;52841;1265;1016347;-54
2022/05/25 00:04:07;;;;;;;;;;;;;;;16.61;76.64;99840.91;52822;1265;1016492;-52
2022/05/25 00:06:37;;;;;;;;;;;;;;;16.64;77.01;99836.16;52850;1265;1016573;-54
2022/05/25 00:09:07;;;;;;;;;;;;;;;16.62;77.28;99830.14;52873;1264;1020624;-51
2022/05/25 00:11:38;;;;;;;;;;;;;;;16.54;77.40;99826.69;52880;1265;1016313;-54
2022/05/25 00:14:08;;;;;;;;;;;;;;;16.48;77.32;99826.48;52858;1265;1018627;-53
2022/05/25 00:16:38;;;;;;;;;;;;;;;16.46;77.29;99831.52;52845;1265;1016507;-54
2022/05/25 00:21:55;;;;;;;;;;;;;;;16.44;77.80;99842.36;52829;1265;1016449;-53
2022/05/25 00:24:25;;;;;;;;;;;;;;;16.37;77.81;99840.59;52875;1265;1016107;-54
2022/05/25 00:26:55;;;;;;;;;;;;;;;16.37;77.97;99843.52;52914;1265;1016279;-53
2022/05/25 00:29:25;;;;;;;;;;;;;;;16.37;78.10;99846.11;52884;1265;1016418;-54
2022/05/25 00:31:56;;;;;;;;;;;;;;;16.36;78.08;99845.20;52909;1265;1016866;-51
2022/05/25 00:34:26;;;;;;;;;;;;;;;16.33;78.24;99849.64;52930;1265;1016513;-54
2022/05/25 00:36:56;;;;;;;;;;;;;;;16.28;78.12;99854.83;52819;1265;1016156;-54
2022/05/25 00:39:26;;;;;;;;;;;;;;;16.28;78.24;99858.92;52900;1265;1016275;-52
2022/05/25 00:41:57;;;;;;;;;;;;;;;16.23;78.42;99861.98;52825;1265;1016627;-52
2022/05/25 00:44:27;;;;;;;;;;;;;;;16.18;78.46;99864.13;52839;1265;1016675;-53
2022/05/25 00:46:57;;;;;;;;;;;;;;;16.17;78.48;99868.03;52825;1268;1015983;-52
2022/05/25 00:49:28;;;;;;;;;;;;;;;16.16;78.68;99871.73;53124;1265;1018362;-51
2022/05/25 00:52:00;;;;;;;;;;;;;;;16.14;78.56;99874.77;52883;1268;1016750;-53
2022/05/25 00:54:32;;;;;;;;;;;;;;;16.13;78.71;99876.12;52868;1265;1016407;-55
2022/05/25 00:57:06;;;;;;;;;;;;;;;16.12;78.80;99874.38;52844;1265;1019887;-55
2022/05/25 00:59:39;;;;;;;;;;;;;;;16.12;78.60;99873.41;52860;1265;1016608;-54
2022/05/25 01:02:09;;;;;;;;;;;;;;;16.16;78.58;99873.38;52865;1268;1016456;-54
2022/05/25 01:04:39;;;;;;;;;;;;;;;16.18;78.54;99870.79;52973;1267;1016261;-50
2022/05/25 01:07:19;;;;;;;;;;;;;;;16.17;78.56;99874.54;52822;1265;1016753;-53
2022/05/25 01:09:55;;;;;;;;;;;;;;;16.17;78.62;99876.73;52902;1268;1016034;-53
2022/05/25 01:12:33;;;;;;;;;;;;;;;16.17;78.76;99881.45;52911;1268;1019194;-50
2022/05/25 01:15:09;;;;;;;;;;;;;;;16.17;78.78;99879.45;52898;1265;1016709;-54
2022/05/25 01:17:48;;;;;;;;;;;;;;;16.16;78.97;99882.23;52892;1265;1016754;-54
2022/05/25 01:20:23;;;;;;;;;;;;;;;16.15;79.04;99884.84;52842;1266;1016409;-54
2022/05/25 01:23:12;;;;;;;;;;;;;;;16.11;79.06;99891.90;52880;1266;1016771;-51
2022/05/25 01:25:54;;;;;;;;;;;;;;;16.06;79.24;99902.81;52781;1267;1016641;-53
2022/05/25 01:28:30;;;;;;;;;;;;;;;16.04;79.42;99914.34;52803;1268;1015900;-52
2022/05/25 01:31:05;;;;;;;;;;;;;;;16.02;79.45;99918.80;52807;1265;1016676;-53
2022/05/25 01:33:39;;;;;;;;;;;;;;;16.03;79.78;99919.20;52893;1265;1016327;-53
2022/05/25 01:36:13;;;;;;;;;;;;;;;16.04;79.79;99914.17;52888;1265;1016425;-53
2022/05/25 01:38:46;;;;;;;;;;;;;;;16.04;79.59;99912.80;52920;1265;1017052;-53
2022/05/25 01:41:18;;;;;;;;;;;;;;;16.07;79.84;99913.09;52794;1265;1015955;-54
2022/05/25 01:43:49;;;;;;;;;;;;;;;16.10;79.79;99911.67;52773;1265;1018423;-52
2022/05/25 01:46:22;;;;;;;;;;;;;;;16.12;79.80;99912.17;52858;1265;1016698;-53
2022/05/25 01:48:53;;;;;;;;;;;;;;;16.12;79.86;99917.44;52775;1265;1016225;-54
2022/05/25 01:51:27;;;;;;;;;;;;;;;16.10;79.95;99920.17;52862;1265;1016243;-52
2022/05/25 01:53:57;;;;;;;;;;;;;;;16.09;80.20;99923.92;52748;1265;1016442;-51
2022/05/25 01:56:29;;;;;;;;;;;;;;;16.05;80.32;99922.22;52792;1265;1015928;-52
2022/05/25 01:59:02;;;;;;;;;;;;;;;16.02;80.47;99919.84;52761;1265;1016361;-54
2022/05/25 02:01:32;;;;;;;;;;;;;;;15.98;80.50;99920.94;52793;1267;1016392;-53
2022/05/25 02:07:04;;;;;;;;;;;;;;;16.00;80.61;99916.52;52738;1265;1019618;-53
2022/05/25 02:09:59;;;;;;;;;;;;;;;16.00;80.66;99909.15;52909;1265;1016554;-52
2022/05/25 02:12:34;;;;;;;;;;;;;;;15.99;80.85;99908.48;52763;1264;1016062;-50
2022/05/25 02:15:09;;;;;;;;;;;;;;;15.97;80.88;99908.41;52933;1264;1016072;-53
2022/05/25 02:17:45;;;;;;;;;;;;;;;15.96;81.00;99905.95;52794;1265;1016685;-52
2022/05/25 02:20:20;;;;;;;;;;;;;;;15.97;81.02;99900.73;52797;1265;1016309;-53
2022/05/25 02:22:51;;;;;;;;;;;;;;;15.99;81.10;99906.70;52914;1265;1017782;-53
2022/05/25 02:25:24;;;;;;;;;;;;;;;16.01;81.08;99913.09;52714;1265;1015873;-51
2022/05/25 02:27:57;;;;;;;;;;;;;;;16.00;80.98;99913.30;52777;1265;1016821;-50
2022/05/25 02:30:30;;;;;;;;;;;;;;;16.00;81.21;99912.94;52764;1264;1016094;-50
2022/05/25 02:33:03;;;;;;;;;;;;;;;16.01;81.39;99919.34;52865;1265;1016601;-52
2022/05/25 02:37:37;;;;;;;12.00;5.30;;;;;;;16.01;81.32;99921.77;103287;1307;544959;-75
2022/05/25 02:40:13;;;;;;;10.10;4.00;;;;;;;15.97;81.49;99920.73;105936;1281;22645;-74
2022/05/25 02:42:45;;;;;;;10.10;4.60;;;;;;;15.91;81.36;99921.14;105951;1278;24222;-74
2022/05/25 02:45:16;;;;;;;12.00;5.00;;;;;;;15.86;81.46;99924.52;105907;1281;23022;-74
2022/05/25 02:47:47;;;;;;;16.00;5.50;;;;;;;15.83;81.44;99923.70;105971;1280;24246;-74
2022/05/25 02:50:19;;;;;;;12.50;5.30;;;;;;;15.86;81.46;99922.31;105318;1278;668562;-74
2022/05/25 02:52:50;;;;;;;12.50;6.00;;;;;;;15.88;81.58;99923.84;106446;1271;22739;-73
2022/05/25 02:55:22;;;;;;;14.60;5.60;;;;;;;15.88;81.73;99918.92;106466;1271;22531;-74
2022/05/25 02:57:54;;;;;;;16.10;5.90;;;;;;;15.89;81.74;99921.41;106467;1271;22554;-74
2022/05/25 03:00:27;;;;;;;14.30;5.20;;;;;;;15.91;81.56;99922.33;106385;1271;22701;-74
2022/05/25 03:02:59;;;;;;;16.50;7.30;;;;;;;15.94;81.68;99921.95;106283;1271;25129;-74
2022/05/25 03:05:31;;;;;;;12.80;5.70;;;;;;;15.93;81.92;99924.98;106607;1271;25229;-74
2022/05/25 03:08:04;;;;;;;14.90;5.80;;;;;;;15.88;81.94;99924.52;106482;1271;22537;-76
2022/05/25 03:10:35;;;;;;;13.20;5.40;;;;;;;15.84;82.13;99931.50;106486;1270;22636;-74
2022/05/25 03:15:32;;;;;;;12.60;5.60;;;;;;;15.74;82.48;99934.57;106413;1261;78221;-65
2022/05/25 03:18:05;;;;;;;16.60;6.30;;;;;;;15.72;82.61;99938.17;108752;1271;26008;-64
2022/05/25 03:20:36;;;;;;;14.30;5.80;;;;;;;15.68;82.91;99938.30;105750;1271;23101;-63
2022/05/25 03:23:09;;;;;;;16.30;6.60;;;;;;;15.66;83.08;99946.14;105980;1271;24164;-64
2022/05/25 03:25:40;;;;;;;12.40;5.70;;;;;;;15.66;83.33;99955.06;106012;1274;22983;-63
2022/05/25 03:28:13;;;;;;;18.80;7.00;;;;;;;15.65;83.22;99957.10;106955;1271;24061;-64
2022/05/25 03:30:47;;;;;;;13.70;6.40;;;;;;;15.66;83.55;99961.24;106406;1271;22605;-63
2022/05/25 03:33:19;;;;;;;13.80;6.20;;;;;;;15.66;83.67;99967.13;106102;1271;22548;-62
2022/05/25 03:35:50;;;;;;;16.40;6.70;;;;;;;15.66;83.66;99971.13;106145;1274;24263;-63
2022/05/25 03:38:50;;;;;;;15.80;6.40;;;;;;;15.66;83.97;99974.70;105828;1271;22623;-63
2022/05/25 03:46:21;;;;;;;14.40;6.70;;;;;;;15.72;83.94;99973.94;101976;1313;557895;-66
2022/05/25 03:48:58;;;;;;;14.20;6.40;;;;;;;15.64;84.20;99979.92;104786;1287;22573;-65
2022/05/25 03:51:27;;;;;;;14.40;6.10;;;;;;;15.60;84.30;99979.02;105691;1281;22550;-65
2022/05/25 03:53:57;;;;;;;14.50;5.50;;;;;;;15.59;84.42;99983.33;105673;1274;22534;-64
2022/05/25 03:56:26;;;;;;;15.60;6.40;;;;;;;15.58;84.55;99986.61;105709;1274;25057;-66
2022/05/25 03:58:55;;;;;;;13.80;7.10;;;;;;;15.60;84.70;99989.20;102176;1268;5397121;-65
2022/05/25 04:01:25;;;;;;;15.10;6.70;;;;;;;15.60;84.73;99990.64;106096;1268;23212;-66
2022/05/25 04:03:53;;;;;;;;;;;;;;;15.59;84.83;99990.89;106080;1268;22513;-67
2022/05/25 04:06:22;;;;;;;12.60;6.30;;;;;;;15.59;84.88;99993.86;106147;1268;22652;-67
2022/05/25 04:08:51;;;;;;;14.80;5.80;;;;;;;15.61;84.65;99996.61;106282;1268;25386;-66
2022/05/25 04:11:21;;;;;;;12.60;6.30;;;;;;;15.65;84.97;99997.77;106211;1267;25227;-68
2022/05/25 04:13:50;;;;;;;11.50;6.20;;;;;;;15.69;84.97;99997.76;106817;1268;24575;-67
2022/05/25 04:16:19;;;;;;;17.70;8.50;;;;;;;15.72;85.00;99996.20;106126;1268;22534;-66
2022/05/25 04:18:48;;;;;;;14.80;7.20;;;;;;;15.76;84.91;99997.81;106420;1268;22557;-67
2022/05/25 04:21:18;;;;;;;15.50;6.80;;;;;;;15.79;84.73;99999.69;106306;1268;25503;-66
2022/05/25 04:23:49;;;;;;;14.00;6.40;;;;;;;15.81;84.84;100000.50;106460;1268;25268;-66
2022/05/25 04:26:19;;;;;;;15.30;6.20;;;;;;;15.82;84.72;99999.57;106234;1268;25381;-66
2022/05/25 04:28:48;;;;;;;14.90;6.00;;;;;;;15.83;84.89;100003.41;106148;1268;24300;-66
2022/05/25 04:31:33;;;;;;;12.30;5.60;;;;;;;15.81;84.69;100010.27;106208;1267;22592;-65
2022/05/25 04:34:13;;;;;;;10.20;4.30;;;;;;;15.79;84.31;100009.83;107206;1268;25538;-63
2022/05/25 04:36:44;;;;;;;13.70;4.40;;;;;;;15.75;83.84;100014.76;106036;1268;22712;-63
2022/05/25 04:39:13;;;;;;;11.80;3.50;;;;;;;15.70;83.40;100020.77;106258;1267;22668;-62
2022/05/25 04:41:42;;;;;;;10.20;3.50;;;;;;;15.66;83.19;100020.80;106263;1268;22558;-63
2022/05/25 04:44:13;;;;;;;9.20;3.70;;;;;;;15.63;83.55;100032.73;106197;1267;24334;-63
2022/05/25 04:46:43;;;;;;;9.10;3.40;;;;;;;15.62;83.88;100037.08;106273;1268;22550;-63
2022/05/25 04:49:11;;;;;;;12.70;3.90;;;;;;;15.62;83.85;100038.93;106364;1268;25548;-64
2022/05/25 04:51:40;;;;;;;10.50;4.00;;;;;;;15.65;83.69;100039.89;106459;1267;24253;-64
2022/05/25 04:54:09;;;;;;;9.10;4.00;;;;;;;15.65;83.98;100042.86;106426;1267;22550;-64
2022/05/25 04:59:25;;;;;;;10.20;3.50;;;;;;;15.61;83.70;100047.22;106003;1267;22553;-64
2022/05/25 05:01:54;;;;;;;10.20;3.30;;;;;;;15.59;83.62;100048.26;106092;1268;22621;-66
2022/05/25 05:04:26;;;;;;;10.70;4.40;;;;;;;15.60;83.63;100051.38;106602;1268;23509;-65
2022/05/25 05:06:55;;;;;;;10.70;3.90;;;;;;;15.60;83.46;100050.86;106282;1268;22792;-64
2022/05/25 05:09:23;;;;;;;8.90;2.90;;;;;;;15.60;83.53;100051.41;106264;1268;22551;-65
2022/05/25 05:11:53;;;;;;;11.60;2.80;;;;;;;15.59;83.01;100050.65;106434;1268;24319;-67
2022/05/25 05:14:22;;;;;;;7.00;2.50;;;;;;;15.59;83.23;100055.27;106406;1268;25340;-66
2022/05/25 05:16:55;;;;;;;9.10;2.90;;;;;;;15.57;83.08;100054.61;106140;1268;23158;-66
2022/05/25 05:19:25;;;;;;;7.90;2.70;;;;;;;15.57;83.14;100056.04;106188;1268;22496;-66
2022/05/25 05:21:54;;;;;;;;;;;;;;;15.56;83.01;100053.48;106268;1268;25852;-65
2022/05/25 05:24:25;;;;;;;9.40;2.70;;;;;;;15.54;83.12;100055.07;106106;1268;25466;-65
2022/05/25 05:26:54;;;;;;;7.50;2.30;;;;;;;15.54;83.41;100057.84;106061;1267;25555;-65
2022/05/25 05:29:24;;;;;;;8.00;2.60;;;;;;;15.51;83.49;100059.08;106321;1267;22555;-64
2022/05/25 05:31:55;;;;;;;9.50;2.50;;;;;;;15.51;83.56;100061.43;106175;1268;22738;-64
2022/05/25 05:34:27;;;;;;;7.10;2.40;;;;;;;15.49;83.23;100063.08;106025;1268;22551;-65
2022/05/25 05:37:02;;;;;;;12.20;3.10;;;;;;;15.48;83.26;100068.55;106295;1268;22643;-66
2022/05/25 05:39:37;;;;;;;11.40;2.80;;;;;;;15.48;83.52;100072.45;106354;1267;25260;-67
2022/05/25 05:42:11;;;;;;;8.70;2.70;;;;;;;15.47;83.39;100078.08;106207;1267;22560;-66
2022/05/25 05:44:44;;;;;;;8.80;2.90;;;;;;;15.46;83.50;100080.18;106361;1267;22564;-67
2022/05/25 05:47:16;;;;;;;10.80;3.30;;;;;;;15.44;83.33;100084.05;106309;1267;24322;-68
2022/05/25 05:49:45;;;;;;;9.80;4.00;;;;;;;15.43;83.60;100083.75;106092;1267;22831;-68
2022/05/25 05:52:15;;;;;;;9.60;3.30;;;;;;;15.41;83.68;100083.98;106885;1267;24311;-69
2022/05/25 05:54:45;;;;;;;8.50;3.20;;;;;;;15.41;83.50;100084.30;106265;1267;22771;-69
2022/05/25 05:57:15;;;;;;;6.40;2.20;;;;;;;15.40;83.38;100084.97;106435;1267;22704;-70
2022/05/25 05:59:44;;;;;;;6.20;2.20;;;;;;;15.37;83.37;100085.44;106641;1267;24275;-69
2022/05/25 06:02:14;;;;;;;10.00;3.00;;;;;;;15.36;83.69;100090.20;106766;1267;25268;-69
2022/05/25 06:04:43;;;;;;;8.70;2.50;;;;;;;15.34;83.76;100088.77;106297;1268;26491;-67
2022/05/25 06:07:12;;;;;;;10.20;3.50;;;;;;;15.32;83.47;100089.48;106327;1268;22724;-67
2022/05/25 06:09:41;;;;;;;10.00;3.50;;;;;;;15.29;83.69;100091.13;106285;1267;22522;-67
2022/05/25 06:12:11;;;;;;;8.00;3.00;;;;;;;15.29;83.77;100093.43;106262;1267;25347;-67
2022/05/25 06:14:40;;;;;;;11.30;4.70;;;;;;;15.28;84.04;100095.34;106318;1267;23058;-66
2022/05/25 06:19:56;;;;;;;7.80;2.20;;;;;;;15.26;83.84;100098.40;106100;1267;25552;-66
2022/05/25 06:22:26;;;;;;;7.90;1.90;;;;;;;15.25;83.81;100103.41;106348;1267;24381;-65
2022/05/25 06:24:56;;;;;;;10.10;1.90;;;;;;;15.23;83.47;100106.80;106153;1267;24234;-65
2022/05/25 06:27:25;;;;;;;8.30;2.10;;;;;;;15.21;83.49;100110.06;106123;1268;22554;-65
2022/05/25 06:29:54;;;;;;;6.30;1.90;;;;;;;15.19;83.40;100118.77;106194;1268;25494;-65
2022/05/25 06:32:24;;;;;;;8.80;2.70;;;;;;;15.17;83.35;100118.05;106020;1267;22566;-65
2022/05/25 06:34:53;;;;;;;8.90;2.40;;;;;;;15.14;83.21;100122.05;106152;1267;22538;-65
2022/05/25 06:37:24;;;;;;;9.30;2.60;;;;;;;15.13;83.39;100129.97;106061;1267;25648;-66
2022/05/25 06:39:53;;;;;;;5.80;2.00;;;;;;;15.12;83.29;100136.98;106243;1267;24319;-65
2022/05/25 06:42:22;;;;;;;8.60;2.40;;;;;;;15.11;83.24;100142.86;106317;1267;22588;-63
2022/05/25 06:44:52;;;;;;;7.60;2.00;;;;;;;15.10;82.97;100144.14;106274;1267;24167;-64
2022/05/25 06:47:21;;;;;;;6.60;2.20;;;;;;;15.10;83.22;100144.35;106382;1267;23819;-66
2022/05/25 06:49:55;;;;;;;9.80;3.00;;;;;;;15.10;83.44;100143.67;106079;1267;22506;-64
2022/05/25 06:52:23;;;;;;;7.40;2.40;;;;;;;15.10;83.36;100144.09;106291;1267;22467;-63
2022/05/25 06:54:54;;;;;;;7.10;1.80;;;;;;;15.08;83.10;100145.83;106049;1267;22538;-65
2022/05/25 06:57:25;;;;;;;6.60;1.60;;;;;;;15.06;83.46;100147.25;106011;1267;25262;-65
2022/05/25 06:59:54;;;;;;;7.10;1.80;;;;;;;15.05;83.19;100149.35;106466;1267;22538;-66
2022/05/25 07:02:24;;;;;;;6.70;1.50;;;;;;;15.02;83.09;100154.98;106026;1267;22536;-67
2022/05/25 07:04:53;;;;;;;;;;;;;;;15.01;83.44;100158.66;106142;1267;22527;-67
2022/05/25 07:07:22;;;;;;;6.10;1.80;;;;;;;15.01;83.47;100160.00;106093;1267;25560;-67
2022/05/25 07:09:52;;;;;;;7.90;1.80;;;;;;;15.02;83.79;100159.73;106167;1267;22565;-67
2022/05/25 07:12:21;;;;;;;6.00;1.50;;;;;;;15.02;83.62;100159.06;106351;1267;25341;-67
2022/05/25 07:14:50;;;;;;;4.70;1.50;;;;;;;15.02;83.50;100162.70;106251;1267;22619;-67
2022/05/25 07:17:18;;;;;;;6.20;1.60;;;;;;;15.01;83.34;100166.99;106215;1267;22552;-66
2022/05/25 07:19:48;;;;;;;4.40;1.30;;;;;;;15.02;83.21;100168.11;106268;1267;24369;-67
2022/05/25 07:22:17;;;;;;;2.80;1.10;;;;;;;15.02;83.30;100168.16;106605;1266;24232;-67
2022/05/25 07:24:47;;;;;;;4.20;1.50;;;;;;;15.00;83.08;100172.09;106173;1268;22588;-65
2022/05/25 07:27:17;;;;;;;5.40;1.30;;;;;;;14.99;83.16;100177.17;106175;1268;24128;-65
2022/05/25 07:29:46;;;;;;;4.90;1.40;;;;;;;14.99;83.54;100177.58;106163;1268;22688;-65
2022/05/25 07:32:16;;;;;;;7.50;1.60;;;;;;;14.96;83.10;100181.52;106218;1267;25275;-64
2022/05/25 07:34:47;;;;;;;4.80;1.40;;;;;;;14.92;83.31;100183.04;106163;1268;26532;-64
2022/05/25 07:37:21;;;;;;;4.50;1.50;;;;;;;14.93;83.30;100190.40;105966;1268;22528;-64
2022/05/25 07:39:54;;;;;;;7.30;1.70;;;;;;;14.96;83.09;100190.96;106064;1267;24290;-64
2022/05/25 07:42:25;;;;;;;13.10;3.00;;;;;;;15.00;83.22;100197.76;106025;1268;25506;-64
2022/05/25 07:44:57;;;;;;;12.00;3.60;;;;;;;15.00;82.86;100197.25;106023;1268;25315;-64
2022/05/25 07:47:28;;;;;;;7.10;1.80;;;;;;;14.98;82.76;100197.70;106117;1267;23162;-64
2022/05/25 07:49:57;;;;;;;5.00;1.20;;;;;;;14.98;82.79;100201.04;106167;1267;25382;-63
2022/05/25 07:52:29;;;;;;;4.40;1.30;;;;;;;14.96;82.41;100199.25;106380;1267;25268;-62
2022/05/25 07:54:59;;;;;;;4.30;1.50;;;;;;;14.96;82.61;100201.64;106380;1267;24218;-64
2022/05/25 07:57:28;;;;;;;6.70;1.70;;;;;;;14.99;83.29;100204.71;106143;1267;24993;-63
2022/05/25 07:59:57;;;;;;;7.00;1.60;;;;;;;15.02;83.54;100206.25;106180;1267;25261;-64
2022/05/25 08:08:06;;;;;;;6.20;1.60;;;;;;;15.06;83.07;100205.68;106042;1267;22556;-65
2022/05/25 08:10:37;;;;;;;4.10;1.30;;;;;;;15.08;83.53;100207.27;106121;1267;22635;-66
2022/05/25 08:13:06;;;;;;;4.50;1.30;;;;;;;15.11;83.49;100211.72;105974;1268;22554;-66
2022/05/25 08:15:42;;;;;;;5.90;1.60;;;;;;;15.10;83.49;100215.11;105988;1270;24394;-66
2022/05/25 08:18:14;;;;;;;8.60;2.10;;;;;;;15.11;83.29;100209.47;106264;1267;22532;-65
2022/05/25 08:20:43;;;;;;;7.70;2.00;;;;;;;15.12;83.07;100212.39;106268;1267;25420;-66
2022/05/25 08:23:16;;;;;;;6.40;1.50;;;;;;;15.12;83.16;100213.61;106182;1267;22657;-65
2022/05/25 08:25:47;;;;;;;5.10;1.30;;;;;;;15.13;83.22;100217.50;106336;1267;24061;-64
2022/05/25 08:28:16;;;;;;;5.00;1.20;;;;;;;15.12;82.93;100219.74;106369;1267;22543;-65
2022/05/25 08:30:47;;;;;;;5.00;1.40;;;;;;;15.11;82.80;100224.77;106385;1267;22522;-65
2022/05/25 08:33:22;;;;;;;5.60;1.70;;;;;;;15.07;82.93;100222.59;106104;1267;22557;-66
2022/05/25 08:35:51;;;;;;;5.30;1.20;;;;;;;15.08;83.21;100226.59;106348;1267;22562;-65
2022/05/25 08:38:22;;;;;;;8.00;1.60;;;;;;;15.08;83.23;100224.70;106283;1267;22536;-65
2022/05/25 08:40:53;;;;;;;9.20;2.20;;;;;;;15.10;83.42;100223.67;106040;1267;25362;-64
2022/05/25 08:43:26;;;;;;;6.60;1.80;;;;;;;15.14;83.63;100219.95;106506;1267;25569;-64
2022/05/25 08:45:59;;;;;;;7.10;1.70;;;;;;;15.16;83.70;100216.23;106585;1268;25472;-63
2022/05/25 08:48:31;;;;;;;6.00;1.60;;;;;;;15.16;83.72;100212.54;106108;1268;25415;-65
2022/05/25 08:51:04;;;;;;;9.30;1.30;;;;;;;15.20;83.67;100212.65;106092;1267;25326;-65
2022/05/25 08:53:35;;;;;;;4.50;1.30;;;;;;;15.21;84.05;100212.30;106283;1267;23425;-65
2022/05/25 08:56:15;;;;;;;6.80;1.50;;;;;;;15.24;83.89;100211.30;106077;1267;22884;-65
2022/05/25 08:58:50;;;;;;;5.30;1.40;;;;;;;15.28;83.57;100214.73;106256;1267;22548;-66
2022/05/25 09:01:26;;;;;;;4.90;1.20;;;;;;;15.28;83.54;100212.02;106113;1267;22541;-66
2022/05/25 09:04:03;;;;;;;5.80;1.20;;;;;;;15.27;83.67;100209.61;106133;1268;22552;-66
2022/05/25 09:06:40;;;;;;;5.20;1.30;;;;;;;15.26;83.43;100210.64;106265;1266;24455;-65
2022/05/25 09:09:17;;;;;;;7.40;1.40;;;;;;;15.26;83.86;100205.02;106101;1267;23092;-65
2022/05/25 09:11:50;;;;;;;4.30;1.40;;;;;;;15.30;84.33;100201.79;106080;1268;22598;-67
2022/05/25 09:14:24;;;;;;;5.90;1.60;;;;;;;15.36;84.62;100193.45;106291;1268;25511;-66
2022/05/25 09:16:59;;;;;;;5.30;1.20;;;;;;;15.45;84.66;100178.79;106185;1268;22998;-67
2022/05/25 09:19:33;;;;;;;5.50;1.70;;;;;;;15.51;84.40;100174.08;106228;1268;25392;-67
2022/05/25 09:22:08;;;;;;;4.10;1.30;;;;;;;15.55;84.68;100178.52;106247;1267;22699;-67
2022/05/25 09:24:39;;;;;;;6.50;1.50;;;;;;;15.61;84.80;100186.52;106151;1267;22531;-67
2022/05/25 09:27:12;;;;;;;3.90;1.30;;;;;;;15.66;84.47;100193.52;106258;1267;22544;-67
2022/05/25 09:29:42;;;;;;;4.30;1.20;;;;;;;15.68;84.31;100201.66;106284;1267;22531;-67
2022/05/25 09:32:33;;;;;;;3.30;0.90;;;;;;;15.70;83.81;100207.74;106278;1267;22525;-68
2022/05/25 09:35:07;;;;;;;4.40;1.10;;;;;;;15.70;83.57;100223.05;106403;1267;22547;-68
2022/05/25 09:37:45;;;;;;;2.70;0.90;;;;;;;15.71;82.98;100232.72;106117;1267;25337;-68
2022/05/25 09:40:21;;;;;;;3.50;0.90;;;;;;;15.76;83.71;100235.20;106165;1267;22585;-67
2022/05/25 09:42:57;;;;;;;4.20;0.80;;;;;;;15.84;83.89;100236.78;106443;1267;24246;-68
2022/05/25 09:45:34;;;;;;;5.40;0.90;;;;;;;15.91;83.76;100242.04;106338;1267;25259;-68
2022/05/25 09:48:16;;;;;;;4.90;0.60;;;;;;;15.95;82.61;100246.06;106123;1267;22763;-68
2022/05/25 09:50:51;;;;;;;3.40;0.80;;;;;;;15.94;81.03;100246.73;106232;1267;25561;-68
2022/05/25 09:53:24;;;;;;;1.70;0.60;;;;;;;15.96;81.46;100245.61;106176;1267;24779;-68
2022/05/25 09:56:04;;;;;;;5.10;0.90;;;;;;;16.00;81.76;100240.27;106180;1267;24239;-68
2022/05/25 09:58:36;;;;;;;;;;;;;;;16.02;81.44;100236.94;106283;1267;25364;-68
2022/05/25 10:01:16;;;;;;;1.60;0.50;;;;;;;16.00;80.97;100240.52;106266;1266;24313;-67
2022/05/25 10:03:46;;;;;;;1.80;0.60;;;;;;;16.05;81.47;100242.14;106050;1267;22614;-68
2022/05/25 10:06:23;;;;;;;5.10;0.90;;;;;;;16.10;81.33;100241.27;106250;1266;22533;-67
2022/05/25 10:09:09;;;;;;;4.30;0.80;;;;;;;16.14;81.31;100245.04;106164;1267;22558;-68
2022/05/25 10:11:45;;;;;;;3.90;0.80;;;;;;;16.19;81.01;100239.73;106493;1267;23995;-67
2022/05/25 10:14:31;;;;;;;2.30;0.70;;;;;;;16.26;80.35;100242.48;106284;1267;25331;-67
2022/05/25 10:17:08;;;;;;;3.30;0.60;;;;;;;16.24;79.35;100250.58;106247;1267;22553;-67
2022/05/25 10:19:51;;;;;;;2.00;0.60;;;;;;;16.18;79.28;100257.93;106213;1267;25453;-67
2022/05/25 10:22:34;;;;;;;2.60;0.60;;;;;;;16.14;79.01;100259.02;106109;1267;24394;-67
2022/05/25 10:25:08;;;;;;;3.80;0.60;;;;;;;16.11;78.41;100255.30;106355;1267;22671;-67
2022/05/25 10:27:40;;;;;;;4.60;0.80;;;;;;;16.13;78.72;100251.13;106291;1267;24355;-67
2022/05/25 10:39:23;;;;;;;4.80;0.60;;;;;;;16.08;78.36;100239.08;105956;1267;22550;-66
2022/05/25 10:42:18;;;;;;;1.90;0.70;;;;;;;16.10;78.26;100236.80;106541;1267;24261;-67
2022/05/25 10:45:06;;;;;;;4.60;0.80;;;;;;;16.12;78.13;100230.96;106159;1267;22607;-66
2022/05/25 10:47:52;;;;;;;3.60;0.80;;;;;;;16.15;78.17;100232.69;106024;1267;24879;-66
2022/05/25 10:50:26;;;;;;;4.40;0.70;;;;;;;16.17;77.75;100234.42;106268;1267;22709;-67
2022/05/25 10:53:01;;;;;;;1.40;0.60;;;;;;;16.24;78.97;100235.17;105966;1267;22531;-66
2022/05/25 10:55:37;;;;;;;4.10;0.60;;;;;;;16.35;78.86;100237.90;106055;1267;22557;-66
2022/05/25 10:58:39;;;;;;;4.80;0.60;;;;;;;16.40;77.66;100241.75;105959;1267;22549;-66
2022/05/25 11:01:24;;;;;;;2.70;0.80;;;;;;;16.46;78.20;100238.15;106235;1267;25328;-66
2022/05/25 11:04:12;;;;;;;3.50;0.50;;;;;;;16.54;78.21;100236.90;106045;1267;25335;-66
2022/05/25 11:06:55;;;;;;;4.10;0.40;;;;;;;16.57;76.87;100238.33;106304;1267;22526;-67
2022/05/25 11:09:48;;;;;;;2.70;0.60;;;;;;;16.56;76.42;100237.45;106076;1267;24787;-66
2022/05/25 11:12:29;;;;;;;3.90;0.60;;;;;;;16.57;77.07;100239.97;106048;1266;24844;-67
2022/05/25 11:15:13;;;;;;;2.70;0.80;;;;;;;16.67;77.51;100230.27;106104;1267;25408;-66
2022/05/25 11:18:02;;;;;;;3.30;0.60;;;;;;;16.79;77.96;100227.31;106085;1267;22554;-66
2022/05/25 11:20:38;;;;;;;3.30;0.80;;;;;;;16.90;77.16;100220.38;105967;1267;22582;-66
2022/05/25 11:23:38;;;;;;;2.40;0.60;;;;;;;17.00;77.67;100219.75;106405;1267;23307;-67
2022/05/25 11:26:22;;;;;;;4.10;0.80;;;;;;;17.13;77.97;100225.14;105910;1267;23954;-67
2022/05/25 11:28:59;;;;;;;5.80;0.80;;;;;;;17.22;76.65;100229.21;106116;1267;24383;-67
2022/05/25 11:31:36;;;;;;;5.10;0.70;;;;;;;17.26;76.72;100234.77;106370;1266;26348;-66
2022/05/25 11:34:28;;;;;;;3.90;0.80;;;;;;;17.29;76.25;100231.05;106149;1267;25180;-67
2022/05/25 11:37:21;;;;;;;2.50;0.60;;;;;;;17.28;75.94;100233.88;106139;1267;22548;-67
2022/05/25 11:40:03;;;;;;;2.20;0.50;;;;;;;17.24;75.51;100238.12;105900;1267;24435;-67
2022/05/25 11:42:54;;;;;;;1.70;0.60;;;;;;;17.18;74.83;100245.26;106249;1267;22528;-67
2022/05/25 11:45:50;;;;;;;;;;;;;;;17.09;74.72;100250.45;105969;1267;25455;-67
2022/05/25 11:48:40;;;;;;;4.70;0.70;;;;;;;17.05;75.00;100253.20;106199;1267;25531;-66
2022/05/25 11:51:20;;;;;;;2.70;0.60;;;;;;;17.04;75.17;100258.80;106008;1266;23313;-66
2022/05/25 11:53:59;;;;;;;4.90;0.70;;;;;;;17.03;74.59;100265.20;106079;1267;24421;-67
2022/05/25 11:56:43;;;;;;;2.40;0.80;;;;;;;17.03;74.86;100261.66;106206;1267;25267;-66
2022/05/25 11:59:39;;;;;;;2.80;0.80;;;;;;;17.05;74.64;100260.27;106022;1267;25526;-66
2022/05/25 12:02:27;;;;;;;5.50;1.00;;;;;;;17.07;74.68;100253.73;106198;1266;24295;-66
2022/05/25 12:05:11;;;;;;;3.80;1.10;;;;;;;17.04;74.30;100252.80;106199;1266;22548;-67
2022/05/25 12:07:53;;;;;;;3.10;0.70;;;;;;;17.00;74.60;100257.27;106016;1267;25280;-66
2022/05/25 12:10:32;;;;;;;2.90;1.00;;;;;;;17.03;74.51;100261.72;106463;1267;22557;-67
2022/05/25 12:13:13;;;;;;;4.20;0.70;;;;;;;17.04;74.51;100260.38;106312;1267;24383;-66
2022/05/25 12:15:54;;;;;;;5.30;1.10;;;;;;;17.04;74.57;100260.99;106235;1267;24370;-66
2022/05/25 12:18:30;;;;;;;4.00;1.10;;;;;;;17.08;74.92;100263.07;106133;1267;23464;-66
2022/05/25 12:21:02;;;;;;;3.60;0.70;;;;;;;17.11;74.61;100263.73;106286;1267;24212;-66
2022/05/25 12:23:37;;;;;;;4.70;0.80;;;;;;;17.12;74.97;100264.63;106195;1267;22568;-66
2022/05/25 12:26:15;;;;;;;2.80;0.70;;;;;;;17.13;74.64;100264.05;106137;1267;22569;-67
2022/05/25 12:28:47;;;;;;;2.60;0.80;;;;;;;17.10;74.82;100261.00;106258;1267;22544;-67
2022/05/25 12:31:21;;;;;;;5.80;1.60;;;;;;;17.12;74.78;100263.30;106295;1267;22552;-67
2022/05/25 12:33:52;;;;;;;4.00;0.80;;;;;;;17.11;74.19;100262.78;106221;1266;22544;-66
2022/05/25 12:36:22;;;;;;;2.50;0.80;;;;;;;17.11;74.37;100263.26;106223;1267;22577;-67
2022/05/25 12:38:53;;;;;;;2.90;0.80;;;;;;;17.14;74.53;100260.92;106332;1267;25074;-66